createdAt,value
2023-08-13T00:00:46.294Z,42381.97
2023-08-13T00:03:12.853Z,42387.97
2023-08-13T00:05:39.400Z,42393.97
2023-08-13T00:08:06.306Z,42401.94
2023-08-13T00:10:32.872Z,42405.94
2023-08-13T00:12:59.598Z,42401.94
2023-08-13T00:15:26.032Z,42385.97
2023-08-13T00:17:52.591Z,42405.94
2023-08-13T00:20:19.370Z,42395.97
2023-08-13T00:22:45.894Z,42397.97
2023-08-13T00:25:12.425Z,42385.97
2023-08-13T00:27:38.899Z,42391.97
2023-08-13T00:30:07.228Z,42378.00
2023-08-13T00:32:34.193Z,42383.97
2023-08-13T00:35:00.652Z,42391.97
2023-08-13T00:37:27.136Z,42385.97
2023-08-13T00:39:53.613Z,42385.97
2023-08-13T00:42:20.042Z,42381.97
2023-08-13T00:44:46.796Z,42387.97
2023-08-13T00:47:13.340Z,42370.00
2023-08-13T00:49:40.319Z,42378.00
2023-08-13T00:52:08.123Z,42368.00
2023-08-13T00:54:36.299Z,42376.00
2023-08-13T00:57:03.780Z,42366.00
2023-08-13T00:59:33.277Z,42358.03
2023-08-13T01:02:00.066Z,42368.00
2023-08-13T01:04:26.654Z,42370.00
2023-08-13T01:07:04.692Z,42346.03
2023-08-13T01:09:49.063Z,42342.06
2023-08-13T01:12:28.972Z,42354.03
2023-08-13T01:15:09.149Z,42346.03
2023-08-13T01:17:37.135Z,42334.06
2023-08-13T01:20:08.056Z,42322.09
2023-08-13T01:22:39.139Z,42354.03
2023-08-13T01:25:10.417Z,42350.03
2023-08-13T01:27:52.638Z,42344.06
2023-08-13T01:30:25.201Z,42334.06
2023-08-13T01:33:01.871Z,42328.06
2023-08-13T01:35:31.137Z,42320.09
2023-08-13T01:38:00.656Z,42298.13
2023-08-13T01:40:27.608Z,42330.06
2023-08-13T01:42:54.241Z,42310.09
2023-08-13T01:45:21.768Z,42304.13
2023-08-13T01:47:49.751Z,42310.09
2023-08-13T01:50:16.263Z,42294.13
2023-08-13T01:52:43.418Z,42318.09
2023-08-13T01:55:10.854Z,42294.13
2023-08-13T01:57:37.358Z,42322.09
2023-08-13T02:00:05.100Z,42290.13
2023-08-13T02:02:32.249Z,42306.13
2023-08-13T02:04:58.849Z,42298.13
2023-08-13T02:07:25.443Z,42310.09
2023-08-13T02:09:52.007Z,42290.13
2023-08-13T02:12:19.964Z,42298.13
2023-08-13T02:14:46.540Z,42294.13
2023-08-13T02:17:15.502Z,42300.13
2023-08-13T02:19:41.932Z,42308.09
2023-08-13T02:22:08.978Z,42306.13
2023-08-13T02:24:35.462Z,42304.13
2023-08-13T02:27:02.090Z,42316.09
2023-08-13T02:29:28.698Z,42322.09
2023-08-13T02:31:56.411Z,42318.09
2023-08-13T02:34:26.720Z,42314.09
2023-08-13T02:36:53.264Z,42304.13
2023-08-13T02:39:19.970Z,42334.06
2023-08-13T02:41:46.432Z,42338.06
2023-08-13T02:44:13.014Z,42300.13
2023-08-13T02:46:39.557Z,42316.09
2023-08-13T02:49:06.121Z,42318.09
2023-08-13T02:51:32.633Z,42338.06
2023-08-13T02:53:59.068Z,42326.09
2023-08-13T02:56:25.550Z,42342.06
2023-08-13T02:58:52.032Z,42314.09
2023-08-13T03:01:18.512Z,42326.09
2023-08-13T03:03:52.084Z,42322.09
2023-08-13T03:06:21.514Z,42320.09
2023-08-13T03:08:48.569Z,42322.09
2023-08-13T03:11:15.186Z,42338.06
2023-08-13T03:13:41.882Z,42328.06
2023-08-13T03:16:09.207Z,42352.03
2023-08-13T03:18:36.142Z,42342.06
2023-08-13T03:21:05.865Z,42338.06
2023-08-13T03:23:33.579Z,42334.06
2023-08-13T03:26:01.474Z,42320.09
2023-08-13T03:28:29.209Z,42336.06
2023-08-13T03:31:02.662Z,42340.06
2023-08-13T03:33:40.475Z,42318.09
2023-08-13T03:36:07.858Z,42346.03
2023-08-13T03:38:35.279Z,42338.06
2023-08-13T03:41:03.225Z,42344.06
2023-08-13T03:43:29.661Z,42348.03
2023-08-13T03:45:56.160Z,42346.03
2023-08-13T03:48:22.682Z,42358.03
2023-08-13T03:50:49.801Z,42356.03
2023-08-13T03:53:16.297Z,42332.06
2023-08-13T03:55:43.258Z,42358.03
2023-08-13T03:58:09.871Z,42358.03
2023-08-13T04:00:36.374Z,42366.00
2023-08-13T04:03:15.305Z,42366.00
2023-08-13T04:05:46.838Z,42368.00
2023-08-13T04:08:13.404Z,42370.00
2023-08-13T04:10:39.836Z,42352.03
2023-08-13T04:13:06.646Z,42370.00
2023-08-13T04:15:33.086Z,42354.03
2023-08-13T04:18:00.219Z,42385.97
2023-08-13T04:20:26.891Z,42409.94
2023-08-13T04:22:53.324Z,42411.94
2023-08-13T04:25:19.925Z,42389.97
2023-08-13T04:27:46.567Z,42413.94
2023-08-13T04:30:13.288Z,42405.94
2023-08-13T04:32:40.434Z,42417.94
2023-08-13T04:35:07.681Z,42433.91
2023-08-13T04:37:34.360Z,42437.88
2023-08-13T04:40:01.316Z,42449.88
2023-08-13T04:42:31.213Z,42447.88
2023-08-13T04:44:57.748Z,42473.84
2023-08-13T04:47:24.611Z,42485.81
2023-08-13T04:49:51.088Z,42449.88
2023-08-13T04:52:17.809Z,42469.84
2023-08-13T04:54:47.261Z,42471.84
2023-08-13T04:57:14.011Z,42491.81
2023-08-13T04:59:41.122Z,42489.81
2023-08-13T05:02:08.418Z,42477.81
2023-08-13T05:04:35.760Z,42501.78
2023-08-13T05:07:02.310Z,42503.78
2023-08-13T05:09:28.859Z,42509.78
2023-08-13T05:11:55.380Z,42527.75
2023-08-13T05:14:23.439Z,42533.72
2023-08-13T05:16:50.202Z,42557.69
2023-08-13T05:19:16.628Z,42549.72
2023-08-13T05:21:43.060Z,42541.72
2023-08-13T05:24:10.352Z,42545.72
2023-08-13T05:26:36.803Z,42557.69
2023-08-13T05:29:04.284Z,42549.72
2023-08-13T05:31:34.336Z,42537.72
2023-08-13T05:34:01.326Z,42533.72
2023-08-13T05:36:28.397Z,42541.72
2023-08-13T05:38:55.206Z,42549.72
2023-08-13T05:41:22.892Z,42541.72
2023-08-13T05:43:51.427Z,42553.69
2023-08-13T05:46:18.072Z,42551.69
2023-08-13T05:48:45.161Z,42541.72
2023-08-13T05:51:12.378Z,42547.72
2023-08-13T05:53:39.549Z,42533.72
2023-08-13T05:56:06.408Z,42545.72
2023-08-13T05:58:32.968Z,42533.72
2023-08-13T06:00:59.593Z,42535.72
2023-08-13T06:03:27.671Z,42517.75
2023-08-13T06:05:55.822Z,42545.72
2023-08-13T06:08:22.316Z,42533.72
2023-08-13T06:10:48.848Z,42517.75
2023-08-13T06:13:16.418Z,42537.72
2023-08-13T06:15:44.515Z,42543.72
2023-08-13T06:18:12.113Z,42541.72
2023-08-13T06:20:38.675Z,42533.72
2023-08-13T06:23:05.177Z,42521.75
2023-08-13T06:25:31.653Z,42537.72
2023-08-13T06:27:58.141Z,42543.72
2023-08-13T06:30:25.293Z,42529.75
2023-08-13T06:32:51.966Z,42529.75
2023-08-13T06:35:18.500Z,42529.75
2023-08-13T06:38:00.218Z,42553.69
2023-08-13T06:40:28.977Z,42521.75
2023-08-13T06:42:55.590Z,42537.72
2023-08-13T06:45:27.760Z,42549.72
2023-08-13T06:47:57.599Z,42507.78
2023-08-13T06:50:24.712Z,42529.75
2023-08-13T06:52:51.169Z,42513.75
2023-08-13T06:55:18.127Z,42519.75
2023-08-13T06:57:44.565Z,42535.72
2023-08-13T07:00:11.465Z,42507.78
2023-08-13T07:02:38.777Z,42529.75
2023-08-13T07:05:06.750Z,42517.75
2023-08-13T07:07:36.097Z,42537.72
2023-08-13T07:10:02.532Z,42513.75
2023-08-13T07:12:29.000Z,42545.72
2023-08-13T07:14:56.662Z,42547.72
2023-08-13T07:17:23.385Z,42545.72
2023-08-13T07:19:50.635Z,42517.75
2023-08-13T07:22:17.706Z,42501.78
2023-08-13T07:24:44.238Z,42527.75
2023-08-13T07:27:11.420Z,42517.75
2023-08-13T07:29:37.949Z,42501.78
2023-08-13T07:32:06.274Z,42529.75
2023-08-13T07:34:32.889Z,42499.78
2023-08-13T07:36:59.476Z,42501.78
2023-08-13T07:39:25.996Z,42507.78
2023-08-13T07:41:52.491Z,42505.78
2023-08-13T07:44:18.944Z,42481.81
2023-08-13T07:46:45.538Z,42513.75
2023-08-13T07:49:11.982Z,42513.75
2023-08-13T07:51:38.755Z,42489.81
2023-08-13T07:54:05.772Z,42517.75
2023-08-13T07:56:32.735Z,42505.78
2023-08-13T07:58:59.176Z,42509.78
2023-08-13T08:01:30.103Z,42517.75
2023-08-13T08:03:57.101Z,42493.78
2023-08-13T08:06:23.724Z,42517.75
2023-08-13T08:08:50.204Z,42521.75
2023-08-13T08:11:16.665Z,42525.75
2023-08-13T08:13:44.003Z,42533.72
2023-08-13T08:16:10.471Z,42549.72
2023-08-13T08:18:37.447Z,42537.72
2023-08-13T08:21:04.010Z,42545.72
2023-08-13T08:23:31.010Z,42529.75
2023-08-13T08:25:57.488Z,42525.75
2023-08-13T08:28:23.905Z,42525.75
2023-08-13T08:30:50.526Z,42537.72
2023-08-13T08:33:17.181Z,42529.75
2023-08-13T08:35:43.733Z,42525.75
2023-08-13T08:38:10.183Z,42505.78
2023-08-13T08:40:37.048Z,42555.69
2023-08-13T08:43:03.581Z,42553.69
2023-08-13T08:45:30.369Z,42535.72
2023-08-13T08:47:58.756Z,42529.75
2023-08-13T08:50:25.695Z,42521.75
2023-08-13T08:52:52.754Z,42519.75
2023-08-13T08:55:20.243Z,42521.75
2023-08-13T08:57:46.709Z,42523.75
2023-08-13T09:00:13.608Z,42503.78
2023-08-13T09:02:42.062Z,42515.75
2023-08-13T09:05:08.951Z,42511.78
2023-08-13T09:07:35.591Z,42507.78
2023-08-13T09:10:05.818Z,42527.75
2023-08-13T09:12:37.307Z,42505.78
2023-08-13T09:15:08.790Z,42495.78
2023-08-13T09:17:35.531Z,42489.81
2023-08-13T09:20:10.100Z,42495.78
2023-08-13T09:22:36.634Z,42493.78
2023-08-13T09:25:03.856Z,42485.81
2023-08-13T09:27:31.508Z,42485.81
2023-08-13T09:30:03.835Z,42509.78
2023-08-13T09:32:30.948Z,42503.78
2023-08-13T09:34:58.523Z,42497.78
2023-08-13T09:37:26.437Z,42497.78
2023-08-13T09:39:53.155Z,42471.84
2023-08-13T09:42:20.232Z,42505.78
2023-08-13T09:44:49.308Z,42503.78
2023-08-13T09:47:18.987Z,42495.78
2023-08-13T09:49:46.370Z,42481.81
2023-08-13T09:52:18.144Z,42461.84
2023-08-13T09:55:15.214Z,42477.81
2023-08-13T09:57:43.074Z,42461.84
2023-08-13T10:00:11.871Z,42465.84
2023-08-13T10:02:42.199Z,42471.84
2023-08-13T10:05:09.524Z,42469.84
2023-08-13T10:07:37.896Z,42461.84
2023-08-13T10:10:08.263Z,42453.88
2023-08-13T10:12:36.398Z,42473.84
2023-08-13T10:15:02.923Z,42451.88
2023-08-13T10:17:30.206Z,42455.88
2023-08-13T10:19:57.816Z,42445.88
2023-08-13T10:22:37.288Z,42443.88
2023-08-13T10:25:04.859Z,42457.84
2023-08-13T10:27:36.796Z,42459.84
2023-08-13T10:30:14.177Z,42489.81
2023-08-13T10:32:55.924Z,42457.84
2023-08-13T10:35:35.671Z,42459.84
2023-08-13T10:38:04.062Z,42437.88
2023-08-13T10:40:31.361Z,42437.88
2023-08-13T10:42:59.170Z,42415.94
2023-08-13T10:45:28.990Z,42425.91
2023-08-13T10:47:58.391Z,42417.94
2023-08-13T10:50:37.881Z,42413.94
2023-08-13T10:53:12.543Z,42419.91
2023-08-13T10:55:44.927Z,42397.97
2023-08-13T10:58:30.418Z,42381.97
2023-08-13T11:01:21.554Z,42385.97
2023-08-13T11:03:49.392Z,42380.00
2023-08-13T11:06:16.090Z,42362.03
2023-08-13T11:08:48.368Z,42360.03
2023-08-13T11:11:17.446Z,42381.97
2023-08-13T11:13:44.786Z,42374.00
2023-08-13T11:16:12.487Z,42366.00
2023-08-13T11:18:39.727Z,42383.97
2023-08-13T11:21:06.740Z,42393.97
2023-08-13T11:23:33.756Z,42383.97
2023-08-13T11:26:00.390Z,42368.00
2023-08-13T11:28:28.418Z,42401.94
2023-08-13T11:30:57.754Z,42381.97
2023-08-13T11:33:25.106Z,42391.97
2023-08-13T11:35:52.496Z,42395.97
2023-08-13T11:38:20.079Z,42401.94
2023-08-13T11:40:47.545Z,42409.94
2023-08-13T11:43:14.714Z,42425.91
2023-08-13T11:45:42.043Z,42405.94
2023-08-13T11:48:09.982Z,42383.97
2023-08-13T11:50:38.382Z,42383.97
2023-08-13T11:53:05.592Z,42397.97
2023-08-13T11:55:33.713Z,42376.00
2023-08-13T11:58:00.307Z,42385.97
2023-08-13T12:00:30.361Z,42374.00
2023-08-13T12:02:57.719Z,42370.00
2023-08-13T12:05:32.685Z,42346.03
2023-08-13T12:08:01.846Z,42338.06
2023-08-13T12:10:29.764Z,42332.06
2023-08-13T12:12:56.204Z,42302.13
2023-08-13T12:15:25.016Z,42258.19
2023-08-13T12:17:52.781Z,42258.19
2023-08-13T12:20:20.052Z,42218.25
2023-08-13T12:22:46.807Z,42202.28
2023-08-13T12:25:13.278Z,42174.34
2023-08-13T12:27:39.763Z,42162.38
2023-08-13T12:30:07.167Z,42184.31
2023-08-13T12:32:33.633Z,42222.25
2023-08-13T12:35:00.128Z,42174.34
2023-08-13T12:37:26.954Z,42160.38
2023-08-13T12:39:53.835Z,42130.41
2023-08-13T12:42:21.696Z,42122.44
2023-08-13T12:44:49.746Z,42106.47
2023-08-13T12:47:17.254Z,42094.47
2023-08-13T12:49:43.695Z,42108.47
2023-08-13T12:52:10.614Z,42078.50
2023-08-13T12:54:37.087Z,42064.53
2023-08-13T12:57:03.703Z,42054.56
2023-08-13T12:59:30.194Z,42036.59
2023-08-13T13:01:56.674Z,42026.59
2023-08-13T13:04:23.142Z,42030.59
2023-08-13T13:06:51.093Z,42040.59
2023-08-13T13:09:17.574Z,42058.53
2023-08-13T13:11:44.198Z,42066.53
2023-08-13T13:14:10.713Z,42050.56
2023-08-13T13:16:37.245Z,42046.56
2023-08-13T13:19:03.956Z,42070.53
2023-08-13T13:21:31.810Z,42054.56
2023-08-13T13:23:59.117Z,42068.53
2023-08-13T13:26:25.714Z,42034.59
2023-08-13T13:28:52.127Z,42058.53
2023-08-13T13:31:18.603Z,42076.50
2023-08-13T13:33:45.037Z,42078.50
2023-08-13T13:36:11.476Z,42078.50
2023-08-13T13:38:37.931Z,42084.50
2023-08-13T13:41:04.560Z,42086.50
2023-08-13T13:43:31.062Z,42090.50
2023-08-13T13:45:58.453Z,42094.47
2023-08-13T13:48:24.928Z,42080.50
2023-08-13T13:50:51.386Z,42060.53
2023-08-13T13:53:20.453Z,42076.50
2023-08-13T13:55:47.763Z,42082.50
2023-08-13T13:58:14.355Z,42054.56
2023-08-13T14:00:40.904Z,42110.47
2023-08-13T14:03:07.532Z,42090.50
2023-08-13T14:05:34.115Z,42078.50
2023-08-13T14:08:00.672Z,42054.56
2023-08-13T14:10:27.260Z,42050.56
2023-08-13T14:12:53.837Z,42058.53
2023-08-13T14:15:20.273Z,42050.56
2023-08-13T14:17:46.714Z,42034.59
2023-08-13T14:20:13.350Z,42002.66
2023-08-13T14:22:39.817Z,42022.63
2023-08-13T14:25:06.590Z,41882.88
2023-08-13T14:27:33.091Z,41922.78
2023-08-13T14:30:00.169Z,41850.94
2023-08-13T14:32:26.840Z,41846.94
2023-08-13T14:34:53.402Z,41842.94
2023-08-13T14:37:19.825Z,41761.09
2023-08-13T14:39:46.325Z,41721.16
2023-08-13T14:42:13.789Z,41757.09
2023-08-13T14:44:40.676Z,41669.25
2023-08-13T14:47:07.693Z,41671.25
2023-08-13T14:49:34.160Z,41633.34
2023-08-13T14:52:00.660Z,41551.50
2023-08-13T14:54:27.828Z,41503.59
2023-08-13T14:56:54.385Z,41351.88
2023-08-13T14:59:21.096Z,41224.16
2023-08-13T15:01:50.190Z,41206.19
2023-08-13T15:04:16.777Z,41236.13
2023-08-13T15:06:43.700Z,41160.28
2023-08-13T15:09:10.312Z,41200.19
2023-08-13T15:11:36.771Z,41198.19
2023-08-13T15:14:03.315Z,41112.38
2023-08-13T15:16:29.829Z,41092.41
2023-08-13T15:18:56.407Z,41044.50
2023-08-13T15:21:22.849Z,40996.63
2023-08-13T15:23:49.286Z,40956.69
2023-08-13T15:26:15.708Z,40846.94
2023-08-13T15:28:42.236Z,40864.91
2023-08-13T15:31:10.795Z,40878.88
2023-08-13T15:33:37.798Z,40821.00
2023-08-13T15:36:04.664Z,40813.00
2023-08-13T15:38:31.112Z,40824.97
2023-08-13T15:40:58.752Z,40838.94
2023-08-13T15:43:25.230Z,40813.00
2023-08-13T15:45:51.657Z,40729.19
2023-08-13T15:48:18.172Z,40709.22
2023-08-13T15:50:46.439Z,40629.41
2023-08-13T15:53:13.149Z,40645.38
2023-08-13T15:55:40.351Z,40553.56
2023-08-13T15:58:10.737Z,40521.66
2023-08-13T16:00:38.245Z,40525.63
2023-08-13T16:03:06.214Z,40541.59
2023-08-13T16:05:33.475Z,40493.72
2023-08-13T16:07:59.997Z,40461.78
2023-08-13T16:10:26.523Z,40437.84
2023-08-13T16:12:53.048Z,40481.75
2023-08-13T16:15:19.613Z,40421.88
2023-08-13T16:17:46.547Z,40453.81
2023-08-13T16:20:14.144Z,40463.78
2023-08-13T16:22:43.234Z,40459.78
2023-08-13T16:25:10.579Z,40401.91
2023-08-13T16:27:37.274Z,40433.84
2023-08-13T16:30:04.816Z,40421.88
2023-08-13T16:32:31.686Z,40429.84
2023-08-13T16:34:58.246Z,40370.00
2023-08-13T16:37:24.804Z,40330.09
2023-08-13T16:39:51.298Z,40330.09
2023-08-13T16:42:18.418Z,40348.03
2023-08-13T16:44:45.147Z,40322.09
2023-08-13T16:47:11.720Z,40348.03
2023-08-13T16:49:38.166Z,40346.06
2023-08-13T16:52:04.880Z,40425.88
2023-08-13T16:54:31.346Z,40366.00
2023-08-13T16:56:57.841Z,40374.00
2023-08-13T16:59:24.304Z,40383.97
2023-08-13T17:01:50.805Z,40350.03
2023-08-13T17:04:17.514Z,40354.03
2023-08-13T17:06:44.045Z,40374.00
2023-08-13T17:09:10.644Z,40525.63
2023-08-13T17:11:37.083Z,40453.81
2023-08-13T17:14:03.659Z,40318.13
2023-08-13T17:16:30.346Z,40318.13
2023-08-13T17:18:56.878Z,40393.94
2023-08-13T17:21:23.390Z,40435.84
2023-08-13T17:23:50.110Z,40477.75
2023-08-13T17:26:16.545Z,40405.91
2023-08-13T17:28:43.424Z,40350.03
2023-08-13T17:31:10.407Z,40334.06
2023-08-13T17:33:36.822Z,40374.00
2023-08-13T17:36:04.247Z,40342.06
2023-08-13T17:38:30.887Z,40356.03
2023-08-13T17:40:57.406Z,40334.06
2023-08-13T17:43:23.924Z,40356.03
2023-08-13T17:45:50.492Z,40431.84
2023-08-13T17:48:19.125Z,40439.84
2023-08-13T17:50:46.169Z,40377.97
2023-08-13T17:53:12.882Z,40360.03
2023-08-13T17:55:39.355Z,40332.09
2023-08-13T17:58:05.806Z,40338.06
2023-08-13T18:00:32.331Z,40332.09
2023-08-13T18:02:58.918Z,40393.94
2023-08-13T18:05:25.627Z,40338.06
2023-08-13T18:07:58.281Z,40278.22
2023-08-13T18:10:31.514Z,40330.09
2023-08-13T18:12:57.989Z,40322.09
2023-08-13T18:15:24.744Z,40324.09
2023-08-13T18:17:51.672Z,40457.78
2023-08-13T18:20:18.301Z,40393.94
2023-08-13T18:22:44.902Z,40433.84
2023-08-13T18:25:13.061Z,40425.88
2023-08-13T18:27:40.897Z,40481.75
2023-08-13T18:30:08.073Z,40485.72
2023-08-13T18:32:34.935Z,40469.78
2023-08-13T18:35:01.530Z,40465.78
2023-08-13T18:37:28.165Z,40543.59
2023-08-13T18:39:57.997Z,40569.53
2023-08-13T18:42:24.599Z,40523.66
2023-08-13T18:44:51.108Z,40539.59
2023-08-13T18:47:17.659Z,40545.59
2023-08-13T18:49:44.145Z,40529.63
2023-08-13T18:52:10.600Z,40551.59
2023-08-13T18:54:37.200Z,40553.56
2023-08-13T18:57:03.856Z,40581.50
2023-08-13T18:59:30.636Z,40575.53
2023-08-13T19:01:57.106Z,40593.50
2023-08-13T19:04:23.672Z,40553.56
2023-08-13T19:06:50.085Z,40565.56
2023-08-13T19:09:16.700Z,40569.53
2023-08-13T19:11:43.186Z,40553.56
2023-08-13T19:14:11.024Z,40577.53
2023-08-13T19:16:38.388Z,40565.56
2023-08-13T19:19:05.895Z,40569.53
2023-08-13T19:21:32.872Z,40555.56
2023-08-13T19:23:59.334Z,40561.56
2023-08-13T19:26:26.017Z,40575.53
2023-08-13T19:28:53.041Z,40557.56
2023-08-13T19:31:19.583Z,40557.56
2023-08-13T19:33:46.093Z,40529.63
2023-08-13T19:36:13.939Z,40513.66
2023-08-13T19:38:40.703Z,40525.63
2023-08-13T19:41:07.274Z,40549.59
2023-08-13T19:43:33.758Z,40541.59
2023-08-13T19:46:00.367Z,40559.56
2023-08-13T19:48:26.896Z,40569.53
2023-08-13T19:50:54.203Z,40573.53
2023-08-13T19:53:21.784Z,40577.53
2023-08-13T19:55:50.811Z,40589.50
2023-08-13T19:58:17.906Z,40609.44
2023-08-13T20:00:44.652Z,40633.41
2023-08-13T20:03:11.612Z,40653.34
2023-08-13T20:05:38.620Z,40655.34
2023-08-13T20:08:05.284Z,40689.28
2023-08-13T20:10:32.861Z,40689.28
2023-08-13T20:12:59.858Z,40691.28
2023-08-13T20:15:26.998Z,40711.22
2023-08-13T20:17:54.526Z,40737.16
2023-08-13T20:20:21.364Z,40721.22
2023-08-13T20:22:48.944Z,40749.16
2023-08-13T20:25:16.686Z,40751.16
2023-08-13T20:27:43.278Z,40769.09
2023-08-13T20:30:09.934Z,40785.06
2023-08-13T20:32:36.656Z,40809.00
2023-08-13T20:35:04.431Z,40821.00
2023-08-13T20:37:31.447Z,40846.94
2023-08-13T20:39:58.472Z,40842.94
2023-08-13T20:42:25.768Z,40860.91
2023-08-13T20:44:52.482Z,40896.81
2023-08-13T20:47:18.977Z,40908.81
2023-08-13T20:49:45.870Z,40904.81
2023-08-13T20:52:12.690Z,40892.84
2023-08-13T20:54:39.162Z,40920.78
2023-08-13T20:57:05.771Z,40932.75
2023-08-13T20:59:32.559Z,40942.72
2023-08-13T21:01:59.002Z,40966.69
2023-08-13T21:04:25.508Z,40952.72
2023-08-13T21:06:52.184Z,40966.69
2023-08-13T21:09:19.141Z,40996.63
2023-08-13T21:11:45.677Z,40998.63
2023-08-13T21:14:12.189Z,41030.53
2023-08-13T21:16:38.715Z,41044.50
2023-08-13T21:19:05.258Z,41068.47
2023-08-13T21:21:31.695Z,41074.44
2023-08-13T21:23:58.184Z,41086.44
2023-08-13T21:26:25.254Z,41110.38
2023-08-13T21:28:51.981Z,41128.34
2023-08-13T21:31:18.571Z,41140.31
2023-08-13T21:33:45.089Z,41176.25
2023-08-13T21:36:11.534Z,41192.22
2023-08-13T21:38:38.179Z,41210.19
2023-08-13T21:41:04.867Z,41216.16
2023-08-13T21:43:31.303Z,41240.13
2023-08-13T21:45:57.875Z,41260.06
2023-08-13T21:48:24.324Z,41268.06
2023-08-13T21:50:50.783Z,41302.00
2023-08-13T21:53:17.252Z,41331.94
2023-08-13T21:55:43.839Z,41343.91
2023-08-13T21:58:10.384Z,41363.88
2023-08-13T22:00:36.858Z,41369.84
2023-08-13T22:03:04.269Z,41381.81
2023-08-13T22:05:31.795Z,41395.81
2023-08-13T22:07:58.325Z,41423.75
2023-08-13T22:10:25.171Z,41411.78
2023-08-13T22:12:51.616Z,41427.75
2023-08-13T22:15:18.152Z,41447.69
2023-08-13T22:17:44.722Z,41473.66
2023-08-13T22:20:11.365Z,41465.66
2023-08-13T22:22:37.817Z,41513.56
2023-08-13T22:25:05.164Z,41507.59
2023-08-13T22:27:31.650Z,41539.53
2023-08-13T22:29:58.352Z,41539.53
2023-08-13T22:32:25.156Z,41567.47
2023-08-13T22:34:52.179Z,41575.44
2023-08-13T22:37:18.777Z,41585.44
2023-08-13T22:39:45.199Z,41603.41
2023-08-13T22:42:11.662Z,41631.34
2023-08-13T22:44:38.102Z,41647.31
2023-08-13T22:47:05.011Z,41659.28
2023-08-13T22:49:38.350Z,41663.28
2023-08-13T22:52:07.645Z,41675.25
2023-08-13T22:54:37.484Z,41715.19
2023-08-13T22:57:06.514Z,41727.16
2023-08-13T22:59:33.545Z,41735.16
2023-08-13T23:02:01.560Z,41747.13
2023-08-13T23:04:28.034Z,41745.13
2023-08-13T23:06:58.004Z,41787.03
2023-08-13T23:09:25.631Z,41773.06
2023-08-13T23:11:52.511Z,41811.00
2023-08-13T23:14:18.973Z,41848.94
2023-08-13T23:16:45.486Z,41830.97
2023-08-13T23:19:12.393Z,41852.91
2023-08-13T23:21:39.602Z,41854.91
2023-08-13T23:24:06.718Z,41880.88
2023-08-13T23:26:33.187Z,41886.84
2023-08-13T23:28:59.679Z,41932.78
2023-08-13T23:31:26.291Z,41902.84
2023-08-13T23:33:52.851Z,41934.78
2023-08-13T23:36:19.337Z,41958.72
2023-08-13T23:38:46.006Z,41962.72
2023-08-13T23:41:12.480Z,41958.72
2023-08-13T23:43:38.990Z,41962.72
2023-08-13T23:46:05.569Z,41978.69
2023-08-13T23:48:32.219Z,42012.63
2023-08-13T23:51:00.456Z,42016.63
2023-08-13T23:53:28.952Z,42026.59
2023-08-13T23:55:55.428Z,42038.59
2023-08-13T23:58:22.665Z,42048.56
